Time;durP1;ratioP1;P1;durP2;ratioP2;P2;SDS_P1;SDS_P2;PMS_P1;PMS_P2;Temp;Humidity;BMP_temperature;BMP_pressure;BME280_temperature;BME280_humidity;BME280_pressure;Samples;Min_cycle;Max_cycle;Signal;HPM_P1;HPM_P2
2022/10/29 00:02:05;;;;;;;28.75;9.20;;;14.50;99.90;;;;;;5031496;28;20056;-66
2022/10/29 00:05:09;;;;;;;22.98;8.52;;;14.50;99.90;;;;;;5031102;28;20499;-66
2022/10/29 00:08:13;;;;;;;16.65;7.97;;;14.60;99.90;;;;;;5031644;28;20033;-66
2022/10/29 00:11:19;;;;;;;21.10;9.23;;;14.60;99.90;;;;;;5030904;28;20056;-66
2022/10/29 00:14:23;;;;;;;18.15;8.52;;;14.70;99.90;;;;;;5035274;28;20397;-66
2022/10/29 00:17:27;;;;;;;21.10;7.93;;;14.70;99.90;;;;;;5035316;28;20048;-66
2022/10/29 00:20:31;;;;;;;18.40;7.88;;;14.60;99.90;;;;;;5035072;28;20052;-66
2022/10/29 00:23:35;;;;;;;21.10;9.55;;;14.60;99.90;;;;;;5034664;28;20120;-66
2022/10/29 00:26:40;;;;;;;20.52;7.50;;;14.70;99.90;;;;;;5035176;28;20052;-66
2022/10/29 00:29:44;;;;;;;19.10;8.02;;;14.70;99.90;;;;;;5035169;28;20037;-66
2022/10/29 00:32:48;;;;;;;17.20;8.50;;;14.50;99.90;;;;;;5034929;28;20048;-66
2022/10/29 00:36:00;;;;;;;27.67;9.18;;;14.50;99.90;;;;;;5022713;28;20067;-67
2022/10/29 00:39:03;;;;;;;17.35;8.98;;;14.50;99.90;;;;;;5034916;28;20045;-66
2022/10/29 00:42:15;;;;;;;24.55;9.38;;;14.50;99.90;;;;;;5034838;28;20045;-66
2022/10/29 00:45:20;;;;;;;24.17;7.93;;;14.50;99.90;;;;;;5034465;28;20041;-66
2022/10/29 00:48:27;;;;;;;14.02;6.65;;;14.50;99.90;;;;;;5034485;28;20048;-67
2022/10/29 00:51:31;;;;;;;17.80;7.47;;;14.40;99.90;;;;;;5034431;28;20040;-66
2022/10/29 00:54:41;;;;;;;16.98;7.72;;;14.30;99.90;;;;;;5034386;28;20495;-66
2022/10/29 00:57:51;;;;;;;16.27;6.07;;;14.40;99.90;;;;;;5034611;28;20048;-67
2022/10/29 01:00:54;;;;;;;16.13;7.43;;;14.40;99.90;;;;;;5034470;28;20056;-66
2022/10/29 01:03:59;;;;;;;16.80;6.43;;;14.30;99.90;;;;;;5034177;28;20044;-66
2022/10/29 01:07:04;;;;;;;15.23;5.72;;;14.30;99.90;;;;;;5034538;28;20049;-66
2022/10/29 01:10:10;;;;;;;15.93;6.68;;;14.20;99.90;;;;;;5034358;28;20045;-66
2022/10/29 01:13:38;;;;;;;16.77;7.72;;;14.20;99.90;;;;;;5034210;28;20048;-66
2022/10/29 01:16:53;;;;;;;19.05;8.20;;;14.30;99.90;;;;;;5033892;28;20041;-66
2022/10/29 01:20:45;;;;;;;22.42;10.40;;;14.20;99.90;;;;;;5034202;28;20103;-66
2022/10/29 01:24:26;;;;;;;31.10;10.98;;;14.20;99.90;;;;;;5032898;28;20064;-66
2022/10/29 01:27:38;;;;;;;24.55;12.02;;;14.20;99.90;;;;;;5033845;28;20053;-66
2022/10/29 01:31:05;;;;;;;21.83;8.82;;;14.10;99.90;;;;;;5033817;28;20499;-66
2022/10/29 01:34:17;;;;;;;23.25;8.57;;;14.00;99.90;;;;;;5033907;28;20049;-66
2022/10/29 01:37:21;;;;;;;20.50;8.45;;;13.90;99.90;;;;;;5033946;28;20049;-66
2022/10/29 01:40:33;;;;;;;21.25;11.15;;;13.80;99.90;;;;;;5033704;28;20523;-66
2022/10/29 01:43:42;;;;;;;25.67;11.63;;;13.80;99.90;;;;;;5033171;28;20044;-66
2022/10/29 01:46:53;;;;;;;26.80;12.60;;;13.70;99.90;;;;;;5033575;28;20040;-66
2022/10/29 01:50:04;;;;;;;29.85;14.45;;;13.70;99.90;;;;;;5033315;28;20044;-66
2022/10/29 01:53:09;;;;;;;30.08;13.48;;;13.70;99.90;;;;;;5033427;28;20056;-66
2022/10/29 01:56:14;;;;;;;32.88;14.70;;;13.70;99.90;;;;;;5033566;28;20044;-66
2022/10/29 01:59:18;;;;;;;24.80;10.63;;;13.60;99.90;;;;;;5033338;28;20392;-66
2022/10/29 02:02:22;;;;;;;39.22;12.45;;;13.50;99.90;;;;;;5033249;28;20048;-66
2022/10/29 02:05:38;;;;;;;24.08;12.13;;;13.40;99.90;;;;;;5032814;28;20040;-66
2022/10/29 02:08:54;;;;;;;26.20;12.50;;;13.30;99.90;;;;;;5033053;28;20040;-66
2022/10/29 02:12:00;;;;;;;28.23;12.80;;;13.30;99.90;;;;;;5033163;28;20041;-66
2022/10/29 02:15:30;;;;;;;23.40;12.60;;;13.30;99.90;;;;;;5033142;28;20048;-66
2022/10/29 02:18:43;;;;;;;28.27;12.70;;;13.20;99.90;;;;;;5032797;28;20048;-67
2022/10/29 02:21:50;;;;;;;26.85;13.55;;;13.20;99.90;;;;;;5033143;28;20056;-66
2022/10/29 02:24:54;;;;;;;29.23;13.32;;;13.20;99.90;;;;;;5032702;28;20531;-67
2022/10/29 02:27:58;;;;;;;29.35;14.43;;;13.10;99.90;;;;;;5032868;28;20044;-66
2022/10/29 02:31:02;;;;;;;22.83;12.10;;;13.20;99.90;;;;;;5032772;28;20056;-66
2022/10/29 02:34:06;;;;;;;22.10;12.25;;;13.30;99.90;;;;;;5032556;28;20048;-66
2022/10/29 02:37:10;;;;;;;29.83;13.35;;;13.20;99.90;;;;;;5031241;28;20072;-66
2022/10/29 02:40:14;;;;;;;26.80;12.80;;;13.20;99.90;;;;;;5033296;28;20052;-66
2022/10/29 02:43:18;;;;;;;29.65;13.77;;;13.30;99.90;;;;;;5031977;28;20044;-67
2022/10/29 02:46:23;;;;;;;22.88;11.43;;;13.20;99.90;;;;;;5032689;28;20052;-67
2022/10/29 02:49:27;;;;;;;23.88;12.10;;;13.10;99.90;;;;;;5032609;28;20044;-66
2022/10/29 02:52:31;;;;;;;25.13;13.15;;;13.00;99.90;;;;;;5032367;28;20499;-66
2022/10/29 02:55:35;;;;;;;26.70;12.25;;;13.00;99.90;;;;;;5032276;28;20044;-66
2022/10/29 02:58:39;;;;;;;23.45;11.25;;;13.00;99.90;;;;;;5032428;28;20041;-66
2022/10/29 03:01:43;;;;;;;29.33;13.55;;;13.00;99.90;;;;;;5032247;28;20120;-66
2022/10/29 03:04:47;;;;;;;29.17;12.98;;;13.00;99.90;;;;;;5031916;28;20084;-67
2022/10/29 03:07:51;;;;;;;23.65;11.75;;;13.00;99.90;;;;;;5031995;28;20117;-66
2022/10/29 03:10:55;;;;;;;40.75;14.30;;;13.00;99.90;;;;;;5032125;28;20064;-66
2022/10/29 03:13:58;;;;;;;33.33;13.85;;;13.00;99.90;;;;;;5032028;28;20049;-66
2022/10/29 03:17:02;;;;;;;31.25;12.98;;;12.80;99.90;;;;;;5031568;28;20049;-66
2022/10/29 03:20:07;;;;;;;27.13;13.05;;;12.80;99.90;;;;;;5031685;28;20052;-66
2022/10/29 03:23:11;;;;;;;31.58;13.57;;;12.80;99.90;;;;;;5031733;28;20108;-66
2022/10/29 03:26:15;;;;;;;33.08;13.80;;;12.70;99.90;;;;;;5031802;28;20056;-66
2022/10/29 03:29:18;;;;;;;31.58;15.43;;;12.70;99.90;;;;;;5031630;28;20044;-66
2022/10/29 03:32:22;;;;;;;25.45;14.63;;;12.70;99.90;;;;;;5031933;28;20048;-66
2022/10/29 03:35:26;;;;;;;35.58;17.55;;;12.60;99.90;;;;;;5031403;28;20044;-66
2022/10/29 03:38:31;;;;;;;34.75;15.48;;;12.60;99.90;;;;;;5031548;28;20044;-66
2022/10/29 03:41:35;;;;;;;33.42;15.20;;;12.60;99.90;;;;;;5031441;28;20040;-66
2022/10/29 03:44:39;;;;;;;30.50;14.65;;;12.50;99.90;;;;;;5031170;28;20048;-66
2022/10/29 03:47:43;;;;;;;31.02;15.48;;;12.50;99.90;;;;;;5031183;28;20064;-66
2022/10/29 03:51:04;;;;;;;29.52;14.77;;;12.40;99.90;;;;;;5031239;28;20080;-66
2022/10/29 03:54:08;;;;;;;33.80;16.17;;;12.40;99.90;;;;;;5031231;28;20049;-66
2022/10/29 03:57:12;;;;;;;26.65;14.07;;;12.40;99.90;;;;;;5031637;28;20336;-66
2022/10/29 04:00:16;;;;;;;33.95;15.65;;;12.50;99.90;;;;;;5031445;28;20056;-66
2022/10/29 04:03:20;;;;;;;27.00;14.05;;;12.50;99.90;;;;;;5030923;28;20059;-66
2022/10/29 04:06:24;;;;;;;28.65;12.32;;;12.50;99.90;;;;;;5031250;28;20036;-66
2022/10/29 04:09:28;;;;;;;22.02;9.93;;;12.50;99.90;;;;;;5031440;28;20053;-66
2022/10/29 04:12:32;;;;;;;23.65;11.52;;;12.50;99.90;;;;;;5031288;28;20044;-66
2022/10/29 04:15:36;;;;;;;21.60;10.70;;;12.50;99.90;;;;;;5031307;28;20064;-67
2022/10/29 04:18:40;;;;;;;40.78;17.65;;;12.50;99.90;;;;;;5031129;28;20044;-66
2022/10/29 04:21:44;;;;;;;40.88;19.63;;;12.40;99.90;;;;;;5031297;28;20045;-66
2022/10/29 04:24:48;;;;;;;56.38;22.92;;;12.40;99.90;;;;;;5030823;28;20045;-66
2022/10/29 04:27:56;;;;;;;51.38;21.17;;;12.30;99.90;;;;;;5031234;28;20392;-66
2022/10/29 04:31:09;;;;;;;47.65;20.00;;;12.30;99.90;;;;;;5030968;28;20441;-66
2022/10/29 04:34:13;;;;;;;26.63;13.43;;;12.30;99.90;;;;;;5031042;28;20594;-66
2022/10/29 04:37:17;;;;;;;30.60;14.32;;;12.40;99.90;;;;;;5030958;28;20068;-66
2022/10/29 04:40:23;;;;;;;74.95;28.88;;;12.40;99.90;;;;;;5031181;28;20523;-66
2022/10/29 04:43:28;;;;;;;58.50;27.83;;;12.50;99.90;;;;;;5030866;28;20049;-66
2022/10/29 04:46:32;;;;;;;87.60;36.90;;;12.40;99.90;;;;;;5030790;28;20048;-66
2022/10/29 04:49:36;;;;;;;32.97;15.35;;;12.40;99.90;;;;;;5030785;28;20045;-66
2022/10/29 04:52:40;;;;;;;64.72;28.15;;;12.30;99.90;;;;;;5030649;28;20040;-66
2022/10/29 04:55:44;;;;;;;52.67;24.55;;;12.30;99.90;;;;;;5030785;28;20119;-66
2022/10/29 04:58:52;;;;;;;38.58;19.85;;;12.10;99.90;;;;;;5031145;28;20041;-66
2022/10/29 05:01:55;;;;;;;37.15;18.40;;;12.10;99.90;;;;;;5034593;28;20384;-66
2022/10/29 05:04:59;;;;;;;41.90;19.50;;;12.00;99.90;;;;;;5033968;28;20036;-66
2022/10/29 05:08:04;;;;;;;41.45;19.40;;;12.00;99.90;;;;;;5034254;28;20049;-66
2022/10/29 05:11:08;;;;;;;39.10;19.00;;;12.00;99.90;;;;;;5034406;28;20044;-66
2022/10/29 05:14:12;;;;;;;45.97;22.02;;;11.90;99.90;;;;;;5034009;28;20060;-66
2022/10/29 05:17:16;;;;;;;44.05;20.42;;;11.90;99.90;;;;;;5034198;28;20052;-66
2022/10/29 05:20:21;;;;;;;33.28;17.50;;;11.90;99.90;;;;;;5034090;28;20045;-66
2022/10/29 05:23:24;;;;;;;36.55;18.58;;;11.90;99.90;;;;;;5033718;28;20052;-66
2022/10/29 05:26:31;;;;;;;37.60;18.00;;;11.80;99.90;;;;;;5033958;28;20056;-66
2022/10/29 05:29:35;;;;;;;32.70;15.90;;;11.80;99.90;;;;;;5034165;28;20052;-66
2022/10/29 05:32:40;;;;;;;28.60;15.85;;;11.70;99.90;;;;;;5033730;28;20052;-66
2022/10/29 05:35:44;;;;;;;34.25;16.42;;;11.70;99.90;;;;;;5034102;28;20052;-67
2022/10/29 05:38:48;;;;;;;31.75;16.15;;;11.60;99.90;;;;;;5033834;28;20056;-66
2022/10/29 05:41:52;;;;;;;34.58;15.63;;;11.50;99.90;;;;;;5033862;28;20389;-66
2022/10/29 05:44:56;;;;;;;33.22;17.27;;;11.60;99.90;;;;;;5033305;28;20503;-66
2022/10/29 05:48:02;;;;;;;34.50;16.27;;;11.60;99.90;;;;;;5033222;28;20052;-66
2022/10/29 05:51:07;;;;;;;35.05;17.40;;;11.60;99.90;;;;;;5033520;28;20508;-66
2022/10/29 05:54:12;;;;;;;46.40;19.85;;;11.50;99.90;;;;;;5033831;28;20492;-66
2022/10/29 05:57:16;;;;;;;33.25;16.65;;;11.30;99.90;;;;;;5033039;28;20060;-66
2022/10/29 06:00:19;;;;;;;44.42;17.58;;;11.20;99.90;;;;;;5033858;28;20057;-66
2022/10/29 06:03:23;;;;;;;35.22;17.00;;;11.20;99.90;;;;;;5032571;28;20044;-66
2022/10/29 06:06:28;;;;;;;36.78;16.20;;;11.10;99.90;;;;;;5033525;28;20061;-66
2022/10/29 06:09:32;;;;;;;45.55;16.00;;;11.10;99.90;;;;;;5032998;28;20044;-66
2022/10/29 06:12:35;;;;;;;31.15;14.70;;;11.20;99.90;;;;;;5033392;28;20451;-66
2022/10/29 06:15:40;;;;;;;40.03;14.73;;;11.30;99.90;;;;;;5032859;28;20040;-66
2022/10/29 06:18:44;;;;;;;39.15;16.15;;;11.40;99.90;;;;;;5032874;28;20064;-66
2022/10/29 06:21:48;;;;;;;29.35;12.82;;;11.50;99.90;;;;;;5032923;28;20048;-66
2022/10/29 06:24:52;;;;;;;22.25;11.35;;;12.10;99.90;;;;;;5032416;28;20064;-66
2022/10/29 06:28:08;;;;;;;15.95;8.35;;;14.30;99.90;;;;;;5032860;28;20052;-66
2022/10/29 06:31:11;;;;;;;11.48;6.57;;;16.70;99.90;;;;;;5032709;28;20045;-67
2022/10/29 06:34:15;;;;;;;15.73;6.50;;;18.70;99.90;;;;;;5032640;28;20076;-67
2022/10/29 06:37:19;;;;;;;10.18;5.75;;;20.40;99.90;;;;;;5032788;28;20048;-66
2022/10/29 06:40:24;;;;;;;10.25;6.22;;;22.00;99.90;;;;;;5033099;28;20052;-67
2022/10/29 06:43:28;;;;;;;18.05;6.53;;;23.10;99.90;;;;;;5032457;28;20045;-67
2022/10/29 06:46:33;;;;;;;16.50;6.47;;;22.70;99.90;;;;;;5032474;28;20064;-67
2022/10/29 06:49:37;;;;;;;9.98;5.35;;;23.50;99.90;;;;;;5032533;28;20040;-67
2022/10/29 06:52:41;;;;;;;11.10;5.28;;;24.20;99.90;;;;;;5032523;28;20049;-67
2022/10/29 06:55:45;;;;;;;8.20;5.47;;;25.70;99.90;;;;;;5032038;28;20507;-67
2022/10/29 06:58:49;;;;;;;9.23;5.38;;;25.70;99.90;;;;;;5032257;28;20048;-68
2022/10/29 07:01:53;;;;;;;13.93;6.90;;;26.70;99.90;;;;;;5032226;28;20052;-67
2022/10/29 07:04:56;;;;;;;9.43;5.30;;;25.00;99.10;;;;;;5031713;28;20487;-67
2022/10/29 07:08:00;;;;;;;12.15;5.60;;;25.30;99.90;;;;;;5032146;28;20064;-67
2022/10/29 07:11:06;;;;;;;10.43;5.80;;;26.50;98.80;;;;;;5032316;28;20351;-67
2022/10/29 07:14:10;;;;;;;13.05;5.57;;;25.50;98.90;;;;;;5031958;28;20059;-67
2022/10/29 07:17:14;;;;;;;12.75;6.03;;;26.50;98.30;;;;;;5032140;28;20044;-67
2022/10/29 07:20:18;;;;;;;17.67;6.18;;;27.20;97.80;;;;;;5031798;28;20595;-67
2022/10/29 07:23:22;;;;;;;13.25;5.47;;;27.80;96.80;;;;;;5031329;28;20040;-67
2022/10/29 07:26:26;;;;;;;13.25;5.53;;;27.90;96.20;;;;;;5031967;28;20052;-67
2022/10/29 07:29:30;;;;;;;8.77;4.93;;;28.30;94.80;;;;;;5031713;28;20040;-67
2022/10/29 07:32:34;;;;;;;12.20;5.68;;;28.60;95.10;;;;;;5031764;28;20045;-67
2022/10/29 07:35:38;;;;;;;13.20;5.53;;;29.60;94.10;;;;;;5031422;28;20396;-67
2022/10/29 07:38:42;;;;;;;12.75;5.60;;;30.10;94.30;;;;;;5031550;28;20503;-67
2022/10/29 07:41:46;;;;;;;9.68;5.20;;;30.60;93.30;;;;;;5031574;28;20040;-67
2022/10/29 07:44:50;;;;;;;10.32;5.75;;;31.10;92.60;;;;;;5030969;28;20044;-67
2022/10/29 07:48:00;;;;;;;6.82;4.75;;;31.30;92.20;;;;;;5031546;28;20049;-67
2022/10/29 07:51:04;;;;;;;7.07;4.63;;;31.90;91.50;;;;;;5031427;28;20104;-67
2022/10/29 07:54:08;;;;;;;8.32;4.75;;;31.90;91.30;;;;;;5031240;28;20044;-68
2022/10/29 07:57:14;;;;;;;10.95;5.05;;;32.30;90.80;;;;;;5031497;28;20048;-68
2022/10/29 08:00:18;;;;;;;9.30;4.80;;;30.60;90.80;;;;;;5031384;28;20048;-68
2022/10/29 08:03:22;;;;;;;7.75;4.63;;;30.40;91.10;;;;;;5031451;28;20392;-67
2022/10/29 08:06:26;;;;;;;10.68;4.22;;;30.00;91.40;;;;;;5031165;28;20053;-67
2022/10/29 08:09:30;;;;;;;9.02;4.00;;;31.60;90.80;;;;;;5031378;28;20056;-67
2022/10/29 08:12:34;;;;;;;6.53;3.28;;;30.80;90.70;;;;;;5031291;28;20045;-67
2022/10/29 08:15:38;;;;;;;5.43;3.15;;;32.20;90.00;;;;;;5030864;28;20053;-67
2022/10/29 08:18:42;;;;;;;6.85;2.75;;;30.60;88.60;;;;;;5031453;28;20396;-67
2022/10/29 08:21:46;;;;;;;5.28;3.00;;;30.60;90.10;;;;;;5031258;28;20052;-67
2022/10/29 08:24:49;;;;;;;6.38;3.00;;;30.70;90.30;;;;;;5031063;28;20060;-67
2022/10/29 08:27:58;;;;;;;6.28;3.75;;;32.50;89.40;;;;;;5031496;28;20380;-67
2022/10/29 08:31:02;;;;;;;8.13;3.15;;;33.30;87.00;;;;;;5031220;28;20041;-67
2022/10/29 08:34:06;;;;;;;5.82;2.38;;;34.10;86.20;;;;;;5033370;28;20053;-68
2022/10/29 08:37:10;;;;;;;5.88;2.30;;;32.40;86.00;;;;;;5034982;28;20044;-67
2022/10/29 08:40:35;;;;;;;7.55;2.97;;;33.90;85.90;;;;;;5034545;28;20052;-68
2022/10/29 08:43:54;;;;;;;4.70;2.38;;;33.30;85.10;;;;;;5034631;28;20052;-67
2022/10/29 08:47:24;;;;;;;5.35;2.88;;;34.40;85.20;;;;;;5022428;28;20045;-67
2022/10/29 08:50:33;;;;;;;9.15;2.78;;;32.60;84.40;;;;;;5034664;28;20036;-68
2022/10/29 08:53:42;;;;;;;4.57;2.30;;;34.00;85.10;;;;;;5034559;28;20044;-67
2022/10/29 08:56:51;;;;;;;7.55;2.95;;;35.40;84.00;;;;;;5034414;28;20052;-67
2022/10/29 09:00:02;;;;;;;8.57;2.50;;;36.80;82.10;;;;;;5034658;28;20064;-67
2022/10/29 09:03:12;;;;;;;5.85;2.45;;;37.20;79.90;;;;;;5034408;28;20032;-68
2022/10/29 09:06:19;;;;;;;6.63;2.50;;;37.40;79.70;;;;;;5034315;28;20048;-68
2022/10/29 09:09:33;;;;;;;5.90;2.63;;;38.90;78.80;;;;;;5034278;28;20036;-67
2022/10/29 09:12:51;;;;;;;9.38;2.97;;;40.30;77.00;;;;;;5034032;28;20040;-67
2022/10/29 09:16:13;;;;;;;10.98;2.92;;;41.50;74.70;;;;;;5034134;28;20392;-68
2022/10/29 09:19:35;;;;;;;16.40;2.78;;;42.00;73.30;;;;;;5034013;28;20473;-68
2022/10/29 09:22:56;;;;;;;3.78;2.00;;;42.20;72.20;;;;;;5034228;28;20053;-67
2022/10/29 09:26:19;;;;;;;6.15;2.13;;;37.30;73.40;;;;;;5033831;28;20044;-67
2022/10/29 09:29:45;;;;;;;2.95;2.30;;;36.00;75.80;;;;;;5034180;28;20384;-68
2022/10/29 09:33:15;;;;;;;7.25;2.65;;;35.10;76.40;;;;;;5034096;28;20037;-67
2022/10/29 09:36:22;;;;;;;8.18;2.17;;;37.00;76.80;;;;;;5033925;28;20496;-68
2022/10/29 09:39:33;;;;;;;5.03;2.40;;;38.50;74.70;;;;;;5033953;28;20057;-68
2022/10/29 09:42:40;;;;;;;5.15;2.45;;;35.80;74.40;;;;;;5033676;28;20056;-67
2022/10/29 09:46:20;;;;;;;9.48;3.13;;;31.50;80.50;;;;;;5032828;28;20049;-66
2022/10/29 09:49:43;;;;;;;3.75;2.70;;;33.60;80.10;;;;;;5033784;28;20049;-67
2022/10/29 09:52:48;;;;;;;4.22;2.60;;;35.80;78.10;;;;;;5033401;28;20044;-66
2022/10/29 09:55:52;;;;;;;5.28;2.13;;;36.00;77.10;;;;;;5033576;28;20052;-67
2022/10/29 09:59:30;;;;;;;15.32;2.78;;;38.40;76.00;;;;;;5033343;28;20052;-68
2022/10/29 10:02:41;;;;;;;7.85;2.97;;;39.80;74.60;;;;;;5033510;28;20037;-66
2022/10/29 10:06:00;;;;;;;4.45;2.67;;;40.00;73.50;;;;;;5033075;28;20048;-66
2022/10/29 10:09:04;;;;;;;;;;;38.70;73.90;;;;;;5033507;28;20045;-67
2022/10/29 10:12:08;;;;;;;4.88;2.70;;;36.40;75.50;;;;;;5033228;28;20259;-66
2022/10/29 10:15:15;;;;;;;5.43;2.70;;;36.20;74.80;;;;;;5033081;28;20398;-66
2022/10/29 10:18:23;;;;;;;6.25;3.15;;;33.90;75.90;;;;;;5033234;28;20040;-66
2022/10/29 10:21:30;;;;;;;7.45;4.35;;;36.00;75.90;;;;;;5032962;28;20388;-67
2022/10/29 10:24:36;;;;;;;9.70;6.95;;;35.60;75.90;;;;;;5032894;28;20420;-66
2022/10/29 10:27:40;;;;;;;12.27;5.68;;;35.20;76.80;;;;;;5032847;28;20068;-66
2022/10/29 10:31:00;;;;;;;5.80;4.32;;;33.00;77.90;;;;;;5032653;28;20044;-67
2022/10/29 10:34:25;;;;;;;7.07;4.00;;;33.70;79.10;;;;;;5032665;28;20037;-67
2022/10/29 10:37:33;;;;;;;6.00;3.40;;;34.60;78.10;;;;;;5032573;28;20049;-66
2022/10/29 10:40:36;;;;;;;7.30;2.83;;;36.10;75.90;;;;;;5032234;28;20069;-67
2022/10/29 10:43:43;;;;;;;8.23;2.63;;;37.20;74.70;;;;;;5032270;28;20673;-67
2022/10/29 10:46:51;;;;;;;3.78;2.38;;;37.30;74.60;;;;;;5032363;28;20487;-66
2022/10/29 10:50:11;;;;;;;4.55;2.47;;;38.60;73.40;;;;;;5032542;28;20045;-67
2022/10/29 10:53:19;;;;;;;5.30;2.20;;;38.50;72.80;;;;;;5031781;28;20065;-66
2022/10/29 10:56:23;;;;;;;6.10;2.13;;;39.30;69.80;;;;;;5031753;28;20052;-67
2022/10/29 10:59:54;;;;;;;5.68;2.13;;;39.20;69.90;;;;;;5032270;28;20053;-67
2022/10/29 11:03:20;;;;;;;9.02;3.03;;;40.80;67.80;;;;;;5031967;28;20060;-66
2022/10/29 11:06:35;;;;;;;4.00;2.35;;;39.40;70.90;;;;;;5032178;28;20045;-67
2022/10/29 11:09:45;;;;;;;7.25;2.40;;;39.10;68.70;;;;;;5031925;28;20040;-67
2022/10/29 11:12:53;;;;;;;5.93;2.03;;;39.50;69.30;;;;;;5032060;28;20066;-68
2022/10/29 11:16:01;;;;;;;8.30;2.33;;;41.10;67.90;;;;;;5031680;28;20036;-67
2022/10/29 11:19:27;;;;;;;8.23;2.45;;;42.00;68.80;;;;;;5032061;28;20476;-67
2022/10/29 11:22:36;;;;;;;6.43;2.53;;;42.20;69.10;;;;;;5031639;28;20598;-68
2022/10/29 11:25:47;;;;;;;6.80;2.42;;;40.30;67.50;;;;;;5031476;28;20036;-67
2022/10/29 11:29:02;;;;;;;9.75;2.72;;;38.70;70.70;;;;;;5031659;28;20400;-67
2022/10/29 11:32:29;;;;;;;5.50;2.58;;;38.20;70.10;;;;;;5031772;28;20496;-66
2022/10/29 11:35:58;;;;;;;10.63;2.95;;;38.80;69.10;;;;;;5031483;28;20056;-67
2022/10/29 11:39:16;;;;;;;4.93;2.55;;;39.70;69.90;;;;;;5031655;28;20056;-67
2022/10/29 11:42:21;;;;;;;7.57;2.60;;;40.20;70.80;;;;;;5031667;28;20384;-67
2022/10/29 11:45:43;;;;;;;7.13;2.42;;;41.50;69.10;;;;;;5031246;28;20052;-67
2022/10/29 11:49:08;;;;;;;5.15;2.20;;;39.80;66.80;;;;;;5031630;28;20049;-67
2022/10/29 11:52:20;;;;;;;3.20;1.90;;;41.20;65.00;;;;;;5031210;28;20035;-67
2022/10/29 11:56:01;;;;;;;4.78;1.70;;;42.10;63.50;;;;;;5030884;28;20053;-67
2022/10/29 11:59:54;;;;;;;3.67;1.73;;;42.90;60.70;;;;;;5031809;28;20487;-67
2022/10/29 12:03:17;;;;;;;3.50;1.77;;;43.30;61.60;;;;;;4986474;28;20072;-67
2022/10/29 12:07:00;;;;;;;3.97;1.67;;;44.40;61.40;;;;;;5030881;28;20041;-67
2022/10/29 12:10:25;;;;;;;7.50;1.85;;;44.60;55.60;;;;;;5023163;28;20044;-67
2022/10/29 12:13:42;;;;;;;6.97;1.85;;;45.10;56.90;;;;;;5035008;28;20053;-67
2022/10/29 12:17:10;;;;;;;4.53;1.45;;;43.60;56.60;;;;;;5034903;28;20053;-67
2022/10/29 12:20:32;;;;;;;8.50;2.42;;;44.40;56.00;;;;;;5035365;28;20507;-67
2022/10/29 12:23:49;;;;;;;5.78;2.10;;;43.80;56.30;;;;;;5034707;28;20052;-66
2022/10/29 12:27:13;;;;;;;6.72;2.22;;;44.10;56.40;;;;;;5022571;28;20044;-66
2022/10/29 12:30:17;;;;;;;7.25;3.30;;;44.50;55.30;;;;;;5035154;28;20037;-67
2022/10/29 12:33:35;;;;;;;10.23;4.90;;;44.20;56.30;;;;;;5034459;28;20043;-67
2022/10/29 12:37:07;;;;;;;9.50;5.00;;;41.00;56.80;;;;;;5034707;28;20040;-66
2022/10/29 12:40:23;;;;;;;6.80;4.57;;;41.60;57.20;;;;;;5034578;28;20405;-67
2022/10/29 12:43:33;;;;;;;9.40;5.28;;;42.30;54.20;;;;;;5034174;28;20048;-67
2022/10/29 12:46:43;;;;;;;10.85;6.45;;;42.80;56.00;;;;;;5034510;28;20044;-67
2022/10/29 12:50:04;;;;;;;;;;;42.70;57.10;;;;;;5034798;28;20396;-67
2022/10/29 12:53:43;;;;;;;6.60;3.80;;;41.20;57.00;;;;;;5034664;28;20334;-67
2022/10/29 12:56:47;;;;;;;6.72;2.60;;;40.50;56.30;;;;;;5034480;28;20507;-67
2022/10/29 12:59:51;;;;;;;5.63;2.50;;;41.00;55.50;;;;;;5034307;28;20599;-66
2022/10/29 13:02:56;;;;;;;4.75;2.10;;;39.50;56.50;;;;;;5034369;28;20052;-66
2022/10/29 13:06:39;;;;;;;6.45;1.90;;;40.00;56.00;;;;;;5034690;28;20049;-66
2022/10/29 13:09:42;;;;;;;6.82;1.58;;;40.80;55.20;;;;;;5034584;28;20052;-67
2022/10/29 13:13:00;;;;;;;5.07;1.95;;;41.70;55.40;;;;;;5034407;28;20045;-67
2022/10/29 13:16:15;;;;;;;10.40;2.72;;;42.50;55.30;;;;;;5034099;28;20052;-67
2022/10/29 13:19:45;;;;;;;8.50;2.17;;;42.20;55.40;;;;;;5033413;28;20064;-66
2022/10/29 13:22:54;;;;;;;6.55;2.53;;;42.00;55.40;;;;;;5034055;28;20057;-66
2022/10/29 13:25:59;;;;;;;3.55;1.52;;;42.20;55.60;;;;;;5033662;28;20424;-66
2022/10/29 13:29:03;;;;;;;5.55;2.22;;;42.00;55.20;;;;;;5033894;28;20049;-67
2022/10/29 13:32:07;;;;;;;6.55;1.90;;;42.20;54.50;;;;;;5033948;28;20393;-66
2022/10/29 13:35:17;;;;;;;3.53;1.52;;;41.40;53.70;;;;;;5033809;28;20392;-66
2022/10/29 13:38:41;;;;;;;;;;;40.40;54.20;;;;;;5034072;28;20048;-66
2022/10/29 13:41:49;;;;;;;4.20;1.45;;;40.50;54.90;;;;;;5013507;28;20383;-66
2022/10/29 13:44:53;;;;;;;3.55;1.50;;;40.80;54.90;;;;;;5033548;28;20511;-66
2022/10/29 13:48:10;;;;;;;4.28;1.50;;;41.20;55.50;;;;;;5033312;28;20108;-66
2022/10/29 13:51:20;;;;;;;2.97;1.33;;;41.50;54.90;;;;;;5033639;28;20045;-66
2022/10/29 13:54:57;;;;;;;5.40;1.65;;;41.70;54.60;;;;;;5033325;28;20092;-66
2022/10/29 13:58:11;;;;;;;3.75;1.63;;;41.50;54.80;;;;;;5033031;28;20064;-66
2022/10/29 14:01:17;;;;;;;2.63;1.20;;;41.20;54.70;;;;;;5033528;28;20039;-66
2022/10/29 14:04:27;;;;;;;5.65;1.75;;;40.60;55.70;;;;;;5033793;28;20060;-66
2022/10/29 14:08:01;;;;;;;3.33;1.17;;;40.10;53.90;;;;;;5033268;28;20483;-66
2022/10/29 14:11:13;;;;;;;6.47;1.52;;;40.00;54.90;;;;;;5033509;28;20052;-66
2022/10/29 14:14:29;;;;;;;4.40;1.30;;;38.90;56.10;;;;;;5032799;28;20044;-66
2022/10/29 14:17:34;;;;;;;3.92;1.23;;;39.00;55.70;;;;;;5033362;28;20060;-66
2022/10/29 14:20:38;;;;;;;3.90;1.38;;;39.00;56.00;;;;;;5033122;28;20044;-66
2022/10/29 14:24:01;;;;;;;5.30;1.52;;;38.80;57.30;;;;;;5032336;28;20044;-66
2022/10/29 14:27:06;;;;;;;5.63;1.50;;;38.80;57.20;;;;;;5033043;28;20499;-65
2022/10/29 14:30:13;;;;;;;5.57;1.50;;;38.80;57.30;;;;;;5032916;28;20041;-66
2022/10/29 14:33:21;;;;;;;3.20;1.52;;;38.60;56.50;;;;;;5032795;28;20364;-66
2022/10/29 14:36:27;;;;;;;3.92;1.73;;;38.20;57.60;;;;;;5032746;28;20040;-66
2022/10/29 14:39:54;;;;;;;5.03;1.95;;;37.70;57.70;;;;;;5032614;28;20052;-66
2022/10/29 14:42:58;;;;;;;8.88;1.50;;;37.50;58.50;;;;;;5032575;28;20047;-66
2022/10/29 14:46:26;;;;;;;4.95;1.33;;;37.20;58.70;;;;;;5032774;28;20487;-66
2022/10/29 14:49:33;;;;;;;3.53;1.63;;;37.00;58.90;;;;;;5032109;28;20061;-66
2022/10/29 14:52:42;;;;;;;5.97;1.42;;;36.70;58.50;;;;;;5032780;28;20487;-66
2022/10/29 14:55:49;;;;;;;10.50;1.70;;;36.40;59.30;;;;;;5032372;28;20045;-66
2022/10/29 14:58:53;;;;;;;4.18;2.15;;;35.90;60.20;;;;;;5031692;28;20036;-66
2022/10/29 15:01:59;;;;;;;6.57;1.90;;;35.50;60.20;;;;;;5032169;28;20060;-66
2022/10/29 15:05:19;;;;;;;7.40;1.92;;;35.20;61.20;;;;;;5031734;28;20393;-66
2022/10/29 15:08:28;;;;;;;7.00;1.63;;;34.80;62.10;;;;;;5031777;28;20547;-65
2022/10/29 15:11:42;;;;;;;11.98;1.65;;;34.20;62.10;;;;;;5031798;28;20112;-65
2022/10/29 15:14:47;;;;;;;5.63;1.40;;;33.80;62.50;;;;;;5031848;28;20044;-65
2022/10/29 15:17:53;;;;;;;4.18;1.73;;;33.40;63.40;;;;;;5031064;28;20044;-66
2022/10/29 15:20:57;;;;;;;5.70;1.90;;;33.00;63.90;;;;;;5031938;28;20049;-65
2022/10/29 15:24:08;;;;;;;5.28;1.52;;;32.60;64.10;;;;;;5031381;28;20057;-65
2022/10/29 15:27:13;;;;;;;;;;;32.10;64.90;;;;;;5032293;28;20060;-66
2022/10/29 15:30:19;;;;;;;5.55;1.55;;;31.60;65.10;;;;;;5031486;28;19931;-66
2022/10/29 15:33:28;;;;;;;5.47;1.70;;;31.20;65.10;;;;;;5031480;28;20040;-65
2022/10/29 15:36:46;;;;;;;3.60;1.70;;;30.70;65.70;;;;;;5031795;28;20041;-65
2022/10/29 15:39:56;;;;;;;8.30;3.00;;;30.20;68.20;;;;;;5031199;28;20040;-66
2022/10/29 15:43:30;;;;;;;5.97;4.13;;;29.60;70.20;;;;;;5031190;28;20048;-67
2022/10/29 15:46:46;;;;;;;12.48;4.55;;;28.90;71.60;;;;;;5031796;28;20494;-67
2022/10/29 15:49:50;;;;;;;6.18;3.30;;;28.00;72.10;;;;;;5031479;28;20044;-67
2022/10/29 15:52:58;;;;;;;4.85;3.13;;;27.30;73.30;;;;;;5032172;28;20041;-67
2022/10/29 15:56:02;;;;;;;9.25;2.95;;;26.50;74.90;;;;;;5031561;28;20388;-66
2022/10/29 15:59:13;;;;;;;8.88;3.20;;;25.80;76.30;;;;;;5031623;28;20049;-66
2022/10/29 16:02:17;;;;;;;11.40;2.70;;;25.10;77.60;;;;;;5031694;28;20113;-67
2022/10/29 16:05:21;;;;;;;9.95;3.17;;;24.50;78.80;;;;;;5030788;28;20295;-67
2022/10/29 16:08:39;;;;;;;9.50;2.92;;;24.00;79.60;;;;;;5031486;28;20507;-66
2022/10/29 16:11:43;;;;;;;7.05;3.15;;;23.60;80.70;;;;;;5031328;28;20049;-67
2022/10/29 16:14:47;;;;;;;8.05;2.00;;;23.20;81.70;;;;;;5031207;28;20044;-66
2022/10/29 16:17:51;;;;;;;19.05;3.15;;;22.80;82.20;;;;;;5031462;28;20052;-66
2022/10/29 16:21:03;;;;;;;12.68;2.67;;;22.60;83.30;;;;;;5031139;28;20036;-66